Mc Veytown, Pennsylvania
Current Conditions -  °F | °C
As of 10:55 PM on Sunday 23 Nov 2014 (Local Time) from KUNV Reporting Station
Light Rain Light Rain  
Wind Chill: 43°   Ceiling: 2200
Heat Index: 47°   Visibility: 7mi
Dew Point: 43°   Wind: 10mph
Humidity: 84%   Direction: 150°SSE
Pressure: 29.82"   Gusts: 16mph
Location:  40.5138°N, 77.7384°W
Report Text: KUNV 240355Z AUTO 15009G14KT 7SM -RA OVC022 09/06 A2982 RMK AO2 T00850059 401501001
Loading
Personal Weather Stations






























Interactive Weather Map New forecast layout! Learn more

10-Day Weather Forecast

Advertisements
Track Severe Weather on mobile